createdAt,value
2019-05-22T00:05:04.899Z,86.2
2019-05-22T00:20:21.107Z,87.7
2019-05-22T00:35:24.599Z,88.4
2019-05-22T00:50:53.292Z,87.8
2019-05-22T01:06:09.326Z,88.2
2019-05-22T01:21:25.398Z,88.8
2019-05-22T01:36:41.401Z,89.3
2019-05-22T01:51:51.332Z,88.8
2019-05-22T02:07:13.370Z,89.5
2019-05-22T02:22:29.290Z,90.8
2019-05-22T02:37:45.760Z,90.3
2019-05-22T02:52:47.829Z,90.7
2019-05-22T03:08:16.808Z,90.2
2019-05-22T03:23:32.600Z,89.3
2019-05-22T03:38:48.367Z,89.4
2019-05-22T03:54:04.142Z,90.3
2019-05-22T04:09:13.791Z,91
2019-05-22T04:24:35.512Z,90.8
2019-05-22T04:39:51.033Z,93.2
2019-05-22T04:55:06.540Z,93.8
2019-05-22T05:10:09.064Z,95.5
2019-05-22T05:25:37.525Z,96.9
2019-05-22T05:40:53.157Z,96.1
2019-05-22T05:56:08.369Z,93.8
2019-05-22T06:11:23.715Z,93.8
2019-05-22T06:26:33.397Z,93.2
2019-05-22T06:41:54.317Z,91
2019-05-22T06:57:10.744Z,89.8
2019-05-22T07:12:24.857Z,87.2
2019-05-22T07:27:27.958Z,86.5
2019-05-22T07:42:56.185Z,84.7
2019-05-22T07:58:10.872Z,84.7
2019-05-22T08:13:26.053Z,85.2
2019-05-22T08:28:41.383Z,84.8
2019-05-22T08:44:16.492Z,85.5
2019-05-22T08:59:20.924Z,84.7
2019-05-22T09:14:27.084Z,82
2019-05-22T09:29:42.340Z,82.5
2019-05-22T09:44:46.305Z,89.2
2019-05-22T10:00:12.469Z,88.5
2019-05-22T10:15:27.622Z,88.1
2019-05-22T10:30:42.578Z,88.5
2019-05-22T10:45:57.620Z,88.6
2019-05-22T11:01:09.497Z,88.4
2019-05-22T11:16:27.646Z,86.2
2019-05-22T11:31:42.626Z,84.9
2019-05-22T11:46:57.662Z,84.4
2019-05-22T12:02:03.526Z,84.3
2019-05-22T12:17:39.074Z,88.1
2019-05-22T12:32:43.009Z,89.6
2019-05-22T12:47:59.612Z,91
2019-05-22T13:03:13.191Z,92.5
2019-05-22T13:18:27.585Z,92.2
2019-05-22T13:33:43.267Z,91.8
2019-05-22T13:48:58.304Z,92.1
2019-05-22T14:04:13.332Z,93.8
2019-05-22T14:19:21.356Z,95.2
2019-05-22T14:34:43.512Z,95.9
2019-05-22T14:49:58.193Z,96.5
2019-05-22T15:05:13.603Z,97.5
2019-05-22T15:20:15.199Z,97.1
2019-05-22T15:35:43.088Z,96.8
2019-05-22T15:50:58.016Z,96.6
2019-05-22T16:06:12.880Z,96.1
2019-05-22T16:21:27.701Z,95.8
2019-05-22T16:36:37.608Z,95
2019-05-22T16:51:57.375Z,95.3
2019-05-22T17:07:12.179Z,94.6
2019-05-22T17:22:26.965Z,94.1
2019-05-22T17:37:30.443Z,94.7
2019-05-22T17:52:56.620Z,95.1
2019-05-22T18:08:16.282Z,95.1
2019-05-22T18:23:26.027Z,94.6
2019-05-22T18:38:41.012Z,93.6
2019-05-22T18:53:52.105Z,93.5
2019-05-22T19:09:10.251Z,94.4
2019-05-22T19:24:25.074Z,93.2
2019-05-22T19:39:39.841Z,91.7
2019-05-22T19:54:45.820Z,90.5
2019-05-22T20:10:09.591Z,88.1
2019-05-22T20:25:24.381Z,87.3
2019-05-22T20:40:39.231Z,86.3
2019-05-22T20:55:54.399Z,85.5
2019-05-22T21:11:08.105Z,83.2
2019-05-22T21:26:23.649Z,79.2
2019-05-22T21:41:39.224Z,78.3
2019-05-22T21:56:53.238Z,78.9
2019-05-22T22:12:01.800Z,79
2019-05-22T22:27:22.891Z,78.9
2019-05-22T22:42:37.792Z,78
2019-05-22T22:57:52.563Z,77.8
2019-05-22T23:12:54.987Z,77
2019-05-22T23:28:35.103Z,77.4
2019-05-22T23:43:37.104Z,76.8
2019-05-22T23:58:53.610Z,76.7
